SAS651 EKCH-EDDH
Flight info
| Callsign | SAS651 |
|---|---|
| Flight time | 0h 49m |
| Altitude | 24000 |
| Route | NEXEN T503 MICOS/N0425F280 N850 BOGMU BOGMU5A |
| Aircraft | A319/M-SDE3FGHIRWY/LB1 |
Departure
| Time | 2026-05-06 18:29 |
|---|---|
| Airport | Copenhagen Kastrup Airport (EKCH) |
Arrival
| Time | 2026-05-06 19:19 |
|---|---|
| Airport | Hamburg Helmut Schmidt Airport (EDDH) |
| Time | Latitude | Longitude | Altitude | Speed | Heading |
|---|---|---|---|---|---|
| 2026-05-06 17:55 | 55.62670 | 12.64437 | 19 ft | 0 kts | 101° |
| 2026-05-06 18:14 | 55.62675 | 12.64399 | 18 ft | 4 kts | 104° |
| 2026-05-06 18:14 | 55.62681 | 12.64353 | 17 ft | 4 kts | 89° |
| 2026-05-06 18:14 | 55.62675 | 12.64323 | 19 ft | 2 kts | 22° |
| 2026-05-06 18:14 | 55.62651 | 12.64306 | 17 ft | 4 kts | 22° |
| 2026-05-06 18:15 | 55.62627 | 12.64286 | 20 ft | 3 kts | 32° |
| 2026-05-06 18:15 | 55.62606 | 12.64265 | 18 ft | 4 kts | 16° |
| 2026-05-06 18:15 | 55.62581 | 12.64262 | 17 ft | 4 kts | 334° |
| 2026-05-06 18:15 | 55.62564 | 12.64290 | 20 ft | 4 kts | 303° |
| 2026-05-06 18:16 | 55.62549 | 12.64330 | 18 ft | 4 kts | 303° |
| 2026-05-06 18:16 | 55.62543 | 12.64348 | 19 ft | 0 kts | 303° |
| 2026-05-06 18:19 | 55.62553 | 12.64319 | 19 ft | 12 kts | 303° |
| 2026-05-06 18:20 | 55.62565 | 12.64215 | 18 ft | 3 kts | 198° |
| 2026-05-06 18:20 | 55.62522 | 12.64216 | 18 ft | 10 kts | 140° |
| 2026-05-06 18:20 | 55.62461 | 12.64353 | 18 ft | 18 kts | 128° |
| 2026-05-06 18:20 | 55.62379 | 12.64551 | 18 ft | 22 kts | 123° |
| 2026-05-06 18:21 | 55.62281 | 12.64789 | 17 ft | 24 kts | 150° |
| 2026-05-06 18:21 | 55.62130 | 12.64682 | 18 ft | 26 kts | 212° |
| 2026-05-06 18:21 | 55.61957 | 12.64507 | 17 ft | 31 kts | 192° |
| 2026-05-06 18:21 | 55.61730 | 12.64565 | 18 ft | 36 kts | 170° |
| 2026-05-06 18:22 | 55.61499 | 12.64367 | 17 ft | 40 kts | 213° |
| 2026-05-06 18:22 | 55.61249 | 12.64079 | 17 ft | 46 kts | 213° |
| 2026-05-06 18:22 | 55.61005 | 12.63798 | 17 ft | 25 kts | 213° |
| 2026-05-06 18:22 | 55.60860 | 12.63630 | 17 ft | 21 kts | 213° |
| 2026-05-06 18:23 | 55.60797 | 12.63583 | 17 ft | 3 kts | 169° |
| 2026-05-06 18:23 | 55.60773 | 12.63615 | 17 ft | 6 kts | 135° |
| 2026-05-06 18:23 | 55.60770 | 12.63620 | 17 ft | 0 kts | 133° |
| 2026-05-06 18:25 | 55.60763 | 12.63635 | 17 ft | 3 kts | 130° |
| 2026-05-06 18:25 | 55.60741 | 12.63680 | 17 ft | 6 kts | 131° |
| 2026-05-06 18:25 | 55.60734 | 12.63693 | 17 ft | 0 kts | 131° |
| 2026-05-06 18:26 | 55.60729 | 12.63704 | 17 ft | 3 kts | 131° |
| 2026-05-06 18:27 | 55.60709 | 12.63744 | 17 ft | 6 kts | 131° |
| 2026-05-06 18:27 | 55.60688 | 12.63816 | 21 ft | 7 kts | 101° |
| 2026-05-06 18:27 | 55.60706 | 12.63916 | 20 ft | 11 kts | 54° |
| 2026-05-06 18:27 | 55.60728 | 12.63952 | 19 ft | 0 kts | 40° |
| 2026-05-06 18:28 | 55.60743 | 12.63975 | 19 ft | 14 kts | 40° |
| 2026-05-06 18:28 | 55.60991 | 12.64359 | 18 ft | 81 kts | 41° |
| 2026-05-06 18:28 | 55.61572 | 12.65260 | 17 ft | 140 kts | 41° |
| 2026-05-06 18:29 | 55.62419 | 12.66545 | 300 ft | 161 kts | 45° |
| 2026-05-06 18:29 | 55.63253 | 12.67840 | 1093 ft | 158 kts | 46° |
| 2026-05-06 18:29 | 55.64070 | 12.69149 | 1863 ft | 158 kts | 47° |
| 2026-05-06 18:29 | 55.64887 | 12.70449 | 2516 ft | 163 kts | 45° |
| 2026-05-06 18:30 | 55.65796 | 12.71858 | 2845 ft | 188 kts | 44° |
| 2026-05-06 18:30 | 55.66855 | 12.73447 | 3229 ft | 212 kts | 43° |
| 2026-05-06 18:30 | 55.68027 | 12.75307 | 3642 ft | 240 kts | 50° |
| 2026-05-06 18:30 | 55.68919 | 12.77904 | 4406 ft | 252 kts | 70° |
| 2026-05-06 18:31 | 55.69262 | 12.80969 | 5433 ft | 258 kts | 88° |
| 2026-05-06 18:31 | 55.68980 | 12.84149 | 6385 ft | 268 kts | 108° |
| 2026-05-06 18:31 | 55.68023 | 12.87020 | 7317 ft | 276 kts | 129° |
| 2026-05-06 18:31 | 55.66496 | 12.89138 | 8265 ft | 285 kts | 152° |
| 2026-05-06 18:32 | 55.64632 | 12.90382 | 9259 ft | 288 kts | 163° |
| 2026-05-06 18:32 | 55.62639 | 12.90960 | 10132 ft | 295 kts | 179° |
| 2026-05-06 18:32 | 55.60528 | 12.90582 | 10492 ft | 317 kts | 195° |
| 2026-05-06 18:32 | 55.58455 | 12.89035 | 10983 ft | 330 kts | 213° |
| 2026-05-06 18:33 | 55.56676 | 12.86460 | 11771 ft | 332 kts | 227° |
| 2026-05-06 18:33 | 55.55066 | 12.83524 | 12645 ft | 334 kts | 227° |
| 2026-05-06 18:33 | 55.53438 | 12.80573 | 13463 ft | 337 kts | 227° |
| 2026-05-06 18:33 | 55.51793 | 12.77590 | 14203 ft | 341 kts | 227° |
| 2026-05-06 18:34 | 55.50179 | 12.74504 | 14898 ft | 344 kts | 230° |
| 2026-05-06 18:34 | 55.48620 | 12.71288 | 15615 ft | 346 kts | 231° |
| 2026-05-06 18:34 | 55.47085 | 12.68002 | 16333 ft | 349 kts | 232° |
| 2026-05-06 18:34 | 55.45542 | 12.64676 | 17035 ft | 352 kts | 231° |
| 2026-05-06 18:35 | 55.43979 | 12.61330 | 17740 ft | 355 kts | 231° |
| 2026-05-06 18:35 | 55.42393 | 12.57973 | 18421 ft | 358 kts | 231° |
| 2026-05-06 18:35 | 55.40789 | 12.54599 | 19039 ft | 361 kts | 231° |
| 2026-05-06 18:35 | 55.39168 | 12.51209 | 19671 ft | 363 kts | 231° |
| 2026-05-06 18:36 | 55.37533 | 12.47800 | 20304 ft | 366 kts | 231° |
| 2026-05-06 18:36 | 55.35883 | 12.44374 | 20935 ft | 368 kts | 231° |
| 2026-05-06 18:36 | 55.34221 | 12.40930 | 21551 ft | 371 kts | 231° |
| 2026-05-06 18:36 | 55.32544 | 12.37460 | 22161 ft | 373 kts | 231° |
| 2026-05-06 18:37 | 55.30861 | 12.33978 | 22750 ft | 376 kts | 231° |
| 2026-05-06 18:37 | 55.29735 | 12.31655 | 23133 ft | 378 kts | 231° |
| 2026-05-06 18:37 | 55.27448 | 12.26939 | 23804 ft | 381 kts | 231° |
| 2026-05-06 18:37 | 55.25754 | 12.23445 | 23939 ft | 381 kts | 231° |
| 2026-05-06 18:38 | 55.24064 | 12.19967 | 23988 ft | 371 kts | 230° |
| 2026-05-06 18:38 | 55.22401 | 12.16550 | 23975 ft | 366 kts | 231° |
| 2026-05-06 18:38 | 55.20729 | 12.13197 | 23975 ft | 366 kts | 227° |
| 2026-05-06 18:38 | 55.18797 | 12.10300 | 23975 ft | 367 kts | 218° |
| 2026-05-06 18:39 | 55.16738 | 12.07663 | 23968 ft | 367 kts | 218° |
| 2026-05-06 18:39 | 55.14671 | 12.05025 | 23972 ft | 368 kts | 218° |
| 2026-05-06 18:39 | 55.12607 | 12.02396 | 23972 ft | 368 kts | 218° |
| 2026-05-06 18:40 | 55.08473 | 11.97135 | 23967 ft | 368 kts | 218° |
| 2026-05-06 18:40 | 55.06406 | 11.94504 | 23967 ft | 368 kts | 218° |
| 2026-05-06 18:40 | 55.04336 | 11.91876 | 23968 ft | 368 kts | 218° |
| 2026-05-06 18:40 | 55.02269 | 11.89252 | 23969 ft | 368 kts | 218° |
| 2026-05-06 18:41 | 55.00197 | 11.86621 | 23969 ft | 368 kts | 218° |
| 2026-05-06 18:41 | 54.98128 | 11.83998 | 23965 ft | 368 kts | 218° |
| 2026-05-06 18:41 | 54.96057 | 11.81379 | 23966 ft | 368 kts | 218° |
| 2026-05-06 18:41 | 54.93985 | 11.78766 | 23955 ft | 368 kts | 217° |
| 2026-05-06 18:42 | 54.91909 | 11.76146 | 23954 ft | 369 kts | 218° |
| 2026-05-06 18:42 | 54.89834 | 11.73524 | 23948 ft | 369 kts | 218° |
| 2026-05-06 18:42 | 54.87784 | 11.70943 | 23947 ft | 369 kts | 217° |
| 2026-05-06 18:42 | 54.85703 | 11.68332 | 23947 ft | 369 kts | 217° |
| 2026-05-06 18:43 | 54.83622 | 11.65722 | 23937 ft | 368 kts | 217° |
| 2026-05-06 18:43 | 54.81556 | 11.63132 | 23571 ft | 365 kts | 217° |
| 2026-05-06 18:43 | 54.79500 | 11.60563 | 23174 ft | 363 kts | 217° |
| 2026-05-06 18:43 | 54.77448 | 11.57998 | 22962 ft | 364 kts | 217° |
| 2026-05-06 18:44 | 54.75399 | 11.55442 | 22945 ft | 363 kts | 217° |
| 2026-05-06 18:44 | 54.73347 | 11.52882 | 22949 ft | 364 kts | 217° |
| 2026-05-06 18:44 | 54.71296 | 11.50322 | 22941 ft | 364 kts | 217° |
| 2026-05-06 18:44 | 54.69235 | 11.47755 | 22952 ft | 365 kts | 217° |
| 2026-05-06 18:45 | 54.67171 | 11.45193 | 22949 ft | 366 kts | 217° |
| 2026-05-06 18:45 | 54.65106 | 11.42630 | 22948 ft | 366 kts | 217° |
| 2026-05-06 18:45 | 54.63039 | 11.40065 | 22949 ft | 366 kts | 217° |
| 2026-05-06 18:45 | 54.61644 | 11.38337 | 22945 ft | 366 kts | 217° |
| 2026-05-06 18:46 | 54.59604 | 11.35812 | 22951 ft | 366 kts | 217° |
| 2026-05-06 18:46 | 54.57534 | 11.33258 | 22769 ft | 365 kts | 217° |
| 2026-05-06 18:46 | 54.55471 | 11.30719 | 22496 ft | 363 kts | 217° |
| 2026-05-06 18:46 | 54.53417 | 11.28206 | 22225 ft | 362 kts | 217° |
| 2026-05-06 18:47 | 54.51364 | 11.25709 | 21942 ft | 360 kts | 216° |
| 2026-05-06 18:47 | 54.49319 | 11.23230 | 21671 ft | 359 kts | 216° |
| 2026-05-06 18:47 | 54.47283 | 11.20760 | 21414 ft | 359 kts | 216° |
| 2026-05-06 18:47 | 54.45247 | 11.18287 | 21162 ft | 358 kts | 216° |
| 2026-05-06 18:48 | 54.43219 | 11.15821 | 20894 ft | 357 kts | 216° |
| 2026-05-06 18:48 | 54.41190 | 11.13368 | 20641 ft | 356 kts | 215° |
| 2026-05-06 18:48 | 54.39140 | 11.11003 | 20386 ft | 354 kts | 214° |
| 2026-05-06 18:48 | 54.37071 | 11.08716 | 20136 ft | 353 kts | 213° |
| 2026-05-06 18:49 | 54.35001 | 11.06472 | 19888 ft | 352 kts | 213° |
| 2026-05-06 18:49 | 54.32933 | 11.04243 | 19635 ft | 350 kts | 213° |
| 2026-05-06 18:49 | 54.30874 | 11.02013 | 19388 ft | 350 kts | 213° |
| 2026-05-06 18:49 | 54.28829 | 10.99780 | 19143 ft | 348 kts | 213° |
| 2026-05-06 18:50 | 54.26796 | 10.97556 | 18902 ft | 346 kts | 213° |
| 2026-05-06 18:50 | 54.24770 | 10.95338 | 18651 ft | 346 kts | 213° |
| 2026-05-06 18:50 | 54.22742 | 10.93118 | 18412 ft | 346 kts | 213° |
| 2026-05-06 18:50 | 54.20715 | 10.90902 | 18173 ft | 345 kts | 213° |
| 2026-05-06 18:51 | 54.18696 | 10.88695 | 17907 ft | 344 kts | 213° |
| 2026-05-06 18:51 | 54.16687 | 10.86501 | 17626 ft | 342 kts | 213° |
| 2026-05-06 18:51 | 54.14686 | 10.84319 | 17352 ft | 341 kts | 213° |
| 2026-05-06 18:51 | 54.12685 | 10.82141 | 17089 ft | 341 kts | 213° |
| 2026-05-06 18:52 | 54.10693 | 10.79974 | 16824 ft | 339 kts | 213° |
| 2026-05-06 18:52 | 54.08712 | 10.77826 | 16562 ft | 336 kts | 213° |
| 2026-05-06 18:52 | 54.06742 | 10.75694 | 16290 ft | 336 kts | 213° |
| 2026-05-06 18:52 | 54.04775 | 10.73565 | 16037 ft | 335 kts | 213° |
| 2026-05-06 18:53 | 54.02805 | 10.71437 | 15783 ft | 334 kts | 213° |
| 2026-05-06 18:53 | 54.00851 | 10.69328 | 15527 ft | 332 kts | 213° |
| 2026-05-06 18:53 | 53.98909 | 10.67230 | 15278 ft | 330 kts | 212° |
| 2026-05-06 18:53 | 53.96971 | 10.65138 | 15027 ft | 330 kts | 212° |
| 2026-05-06 18:54 | 53.95061 | 10.63079 | 14783 ft | 329 kts | 212° |
| 2026-05-06 18:54 | 53.93133 | 10.61003 | 14538 ft | 327 kts | 212° |
| 2026-05-06 18:54 | 53.91210 | 10.58937 | 14295 ft | 326 kts | 212° |
| 2026-05-06 18:54 | 53.89302 | 10.56885 | 14052 ft | 324 kts | 212° |
| 2026-05-06 18:55 | 53.87396 | 10.54836 | 13813 ft | 324 kts | 211° |
| 2026-05-06 18:55 | 53.85487 | 10.52789 | 13557 ft | 325 kts | 212° |
| 2026-05-06 18:55 | 53.83579 | 10.50749 | 13287 ft | 323 kts | 212° |
| 2026-05-06 18:55 | 53.81675 | 10.48718 | 13014 ft | 323 kts | 212° |
| 2026-05-06 18:56 | 53.79761 | 10.46712 | 12739 ft | 324 kts | 212° |
| 2026-05-06 18:56 | 53.77836 | 10.44708 | 12487 ft | 326 kts | 211° |
| 2026-05-06 18:56 | 53.75904 | 10.42694 | 12139 ft | 326 kts | 211° |
| 2026-05-06 18:56 | 53.73977 | 10.40687 | 11608 ft | 325 kts | 211° |
| 2026-05-06 18:57 | 53.72052 | 10.38690 | 11090 ft | 325 kts | 211° |
| 2026-05-06 18:57 | 53.70123 | 10.36696 | 10565 ft | 325 kts | 211° |
| 2026-05-06 18:57 | 53.68202 | 10.34716 | 10243 ft | 319 kts | 211° |
| 2026-05-06 18:57 | 53.66345 | 10.32806 | 10117 ft | 307 kts | 211° |
| 2026-05-06 18:58 | 53.64560 | 10.30926 | 9897 ft | 300 kts | 216° |
| 2026-05-06 18:58 | 53.63101 | 10.28523 | 9727 ft | 286 kts | 229° |
| 2026-05-06 18:58 | 53.61812 | 10.26100 | 9569 ft | 270 kts | 229° |
| 2026-05-06 18:58 | 53.60590 | 10.23777 | 9248 ft | 262 kts | 230° |
| 2026-05-06 18:59 | 53.59391 | 10.21488 | 8796 ft | 259 kts | 229° |
| 2026-05-06 18:59 | 53.58213 | 10.19225 | 8350 ft | 256 kts | 229° |
| 2026-05-06 18:59 | 53.57057 | 10.17001 | 7891 ft | 257 kts | 230° |
| 2026-05-06 18:59 | 53.55926 | 10.14694 | 7620 ft | 255 kts | 233° |
| 2026-05-06 19:00 | 53.54876 | 10.12300 | 7336 ft | 254 kts | 234° |
| 2026-05-06 19:00 | 53.53838 | 10.09904 | 7047 ft | 253 kts | 234° |
| 2026-05-06 19:00 | 53.52805 | 10.07520 | 6758 ft | 252 kts | 234° |
| 2026-05-06 19:00 | 53.51776 | 10.05146 | 6488 ft | 250 kts | 234° |
| 2026-05-06 19:01 | 53.50755 | 10.02787 | 6197 ft | 249 kts | 234° |
| 2026-05-06 19:01 | 53.49738 | 10.00434 | 5862 ft | 249 kts | 234° |
| 2026-05-06 19:01 | 53.48725 | 9.98077 | 5552 ft | 248 kts | 234° |
| 2026-05-06 19:01 | 53.47719 | 9.95721 | 5235 ft | 248 kts | 234° |
| 2026-05-06 19:02 | 53.46723 | 9.93367 | 5040 ft | 248 kts | 234° |
| 2026-05-06 19:02 | 53.45726 | 9.91009 | 5032 ft | 248 kts | 234° |
| 2026-05-06 19:02 | 53.44723 | 9.88642 | 5034 ft | 249 kts | 234° |
| 2026-05-06 19:02 | 53.43719 | 9.86272 | 5008 ft | 249 kts | 234° |
| 2026-05-06 19:03 | 53.42713 | 9.83905 | 5010 ft | 249 kts | 234° |
| 2026-05-06 19:03 | 53.41709 | 9.81541 | 5006 ft | 249 kts | 234° |
| 2026-05-06 19:03 | 53.40704 | 9.79178 | 5007 ft | 249 kts | 234° |
| 2026-05-06 19:03 | 53.39699 | 9.76814 | 5007 ft | 249 kts | 234° |
| 2026-05-06 19:04 | 53.38695 | 9.74452 | 5006 ft | 249 kts | 234° |
| 2026-05-06 19:04 | 53.37689 | 9.72092 | 5009 ft | 249 kts | 234° |
| 2026-05-06 19:04 | 53.36684 | 9.69735 | 5009 ft | 249 kts | 234° |
| 2026-05-06 19:04 | 53.35679 | 9.67380 | 5010 ft | 249 kts | 234° |
| 2026-05-06 19:05 | 53.34675 | 9.65020 | 5011 ft | 248 kts | 234° |
| 2026-05-06 19:05 | 53.33676 | 9.62665 | 5008 ft | 248 kts | 234° |
| 2026-05-06 19:05 | 53.32680 | 9.60310 | 5007 ft | 248 kts | 234° |
| 2026-05-06 19:05 | 53.31697 | 9.57988 | 5008 ft | 248 kts | 234° |
| 2026-05-06 19:06 | 53.30699 | 9.55635 | 5007 ft | 248 kts | 234° |
| 2026-05-06 19:06 | 53.29703 | 9.53288 | 5008 ft | 248 kts | 234° |
| 2026-05-06 19:06 | 53.28706 | 9.50939 | 5007 ft | 248 kts | 234° |
| 2026-05-06 19:06 | 53.27708 | 9.48592 | 5007 ft | 248 kts | 234° |
| 2026-05-06 19:07 | 53.26760 | 9.46192 | 4998 ft | 248 kts | 245° |
| 2026-05-06 19:07 | 53.26457 | 9.43403 | 5009 ft | 246 kts | 278° |
| 2026-05-06 19:07 | 53.27053 | 9.40795 | 5008 ft | 240 kts | 311° |
| 2026-05-06 19:07 | 53.28345 | 9.39154 | 5012 ft | 232 kts | 343° |
| 2026-05-06 19:08 | 53.29909 | 9.38955 | 5010 ft | 226 kts | 16° |
| 2026-05-06 19:08 | 53.31326 | 9.40029 | 5016 ft | 224 kts | 32° |
| 2026-05-06 19:08 | 53.32655 | 9.41388 | 5011 ft | 224 kts | 34° |
| 2026-05-06 19:08 | 53.33949 | 9.42737 | 5001 ft | 211 kts | 34° |
| 2026-05-06 19:09 | 53.35170 | 9.44013 | 5005 ft | 205 kts | 34° |
| 2026-05-06 19:09 | 53.36371 | 9.45276 | 5011 ft | 204 kts | 34° |
| 2026-05-06 19:09 | 53.37490 | 9.46708 | 5012 ft | 202 kts | 46° |
| 2026-05-06 19:09 | 53.38300 | 9.48605 | 5019 ft | 201 kts | 65° |
| 2026-05-06 19:10 | 53.38993 | 9.50633 | 5014 ft | 202 kts | 53° |
| 2026-05-06 19:10 | 53.39882 | 9.52451 | 5015 ft | 201 kts | 51° |
| 2026-05-06 19:10 | 53.40788 | 9.54243 | 5014 ft | 201 kts | 51° |
| 2026-05-06 19:10 | 53.41691 | 9.56032 | 5013 ft | 201 kts | 51° |
| 2026-05-06 19:11 | 53.42593 | 9.57824 | 5011 ft | 201 kts | 51° |
| 2026-05-06 19:11 | 53.43494 | 9.59617 | 5010 ft | 201 kts | 51° |
| 2026-05-06 19:11 | 53.44375 | 9.61370 | 5048 ft | 187 kts | 51° |
| 2026-05-06 19:11 | 53.45173 | 9.62959 | 5030 ft | 172 kts | 50° |
| 2026-05-06 19:12 | 53.45937 | 9.64482 | 4963 ft | 170 kts | 51° |
| 2026-05-06 19:12 | 53.46693 | 9.65990 | 4787 ft | 168 kts | 51° |
| 2026-05-06 19:12 | 53.47442 | 9.67485 | 4582 ft | 166 kts | 51° |
| 2026-05-06 19:12 | 53.48185 | 9.68970 | 4357 ft | 166 kts | 51° |
| 2026-05-06 19:13 | 53.48917 | 9.70432 | 4130 ft | 165 kts | 51° |
| 2026-05-06 19:13 | 53.49653 | 9.71903 | 3909 ft | 164 kts | 51° |
| 2026-05-06 19:13 | 53.50387 | 9.73372 | 3684 ft | 164 kts | 51° |
| 2026-05-06 19:13 | 53.51120 | 9.74840 | 3463 ft | 163 kts | 51° |
| 2026-05-06 19:14 | 53.51848 | 9.76299 | 3243 ft | 162 kts | 51° |
| 2026-05-06 19:14 | 53.52574 | 9.77754 | 3021 ft | 162 kts | 51° |
| 2026-05-06 19:14 | 53.53298 | 9.79205 | 2796 ft | 161 kts | 52° |
| 2026-05-06 19:14 | 53.54018 | 9.80650 | 2575 ft | 161 kts | 51° |
| 2026-05-06 19:15 | 53.54737 | 9.82094 | 2353 ft | 161 kts | 51° |
| 2026-05-06 19:15 | 53.55452 | 9.83531 | 2136 ft | 160 kts | 51° |
| 2026-05-06 19:15 | 53.56161 | 9.84956 | 1915 ft | 158 kts | 52° |
| 2026-05-06 19:15 | 53.56861 | 9.86365 | 1701 ft | 156 kts | 51° |
| 2026-05-06 19:16 | 53.57507 | 9.87662 | 1494 ft | 134 kts | 51° |
| 2026-05-06 19:16 | 53.58080 | 9.88815 | 1312 ft | 124 kts | 51° |
| 2026-05-06 19:16 | 53.58626 | 9.89916 | 1134 ft | 121 kts | 51° |
| 2026-05-06 19:16 | 53.59162 | 9.90996 | 967 ft | 119 kts | 51° |
| 2026-05-06 19:17 | 53.59691 | 9.92063 | 803 ft | 119 kts | 50° |
| 2026-05-06 19:17 | 53.60225 | 9.93140 | 644 ft | 119 kts | 50° |
| 2026-05-06 19:17 | 53.60757 | 9.94214 | 466 ft | 120 kts | 50° |
| 2026-05-06 19:17 | 53.61291 | 9.95293 | 309 ft | 120 kts | 52° |
| 2026-05-06 19:18 | 53.61819 | 9.96359 | 150 ft | 119 kts | 51° |
| 2026-05-06 19:18 | 53.62344 | 9.97417 | 51 ft | 116 kts | 51° |
| 2026-05-06 19:18 | 53.62819 | 9.98420 | 44 ft | 93 kts | 49° |
| 2026-05-06 19:18 | 53.63142 | 9.99031 | 46 ft | 55 kts | 51° |
| 2026-05-06 19:19 | 53.63294 | 9.99488 | 47 ft | 29 kts | 92° |
| 2026-05-06 19:19 | 53.63281 | 9.99624 | 48 ft | 0 kts | 100° |
| 2026-05-06 19:20 | 53.63279 | 9.99634 | 48 ft | 2 kts | 101° |
| 2026-05-06 19:20 | 53.63279 | 9.99639 | 48 ft | 1 kts | 101° |
| 2026-05-06 19:20 | 53.63266 | 9.99704 | 46 ft | 10 kts | 123° |
| 2026-05-06 19:20 | 53.63194 | 9.99785 | 48 ft | 14 kts | 151° |
| 2026-05-06 19:21 | 53.63094 | 9.99872 | 48 ft | 18 kts | 152° |
| 2026-05-06 19:21 | 53.63000 | 9.99954 | 48 ft | 7 kts | 153° |
| 2026-05-06 19:21 | 53.62989 | 9.99964 | 47 ft | 2 kts | 153° |
| 2026-05-06 19:21 | 53.62981 | 9.99971 | 48 ft | 0 kts | 153° |
| 2026-05-06 19:22 | 53.62971 | 9.99979 | 48 ft | 6 kts | 153° |
| 2026-05-06 19:22 | 53.62898 | 10.00035 | 48 ft | 14 kts | 166° |
| 2026-05-06 19:23 | 53.62801 | 10.00110 | 48 ft | 17 kts | 153° |
| 2026-05-06 19:23 | 53.62715 | 10.00202 | 48 ft | 8 kts | 97° |
| 2026-05-06 19:23 | 53.62733 | 10.00289 | 47 ft | 5 kts | 62° |
| 2026-05-06 19:23 | 53.62739 | 10.00307 | 46 ft | 1 kts | 62° |
| 2026-05-06 19:24 | 53.62741 | 10.00313 | 46 ft | 0 kts | 62° |
| 2026-05-06 19:24 | 53.62741 | 10.00314 | 46 ft | 0 kts | 62° |